Time;durP1;ratioP1;P1;durP2;ratioP2;P2;SDS_P1;SDS_P2;PMS_P1;PMS_P2;Temp;Humidity;BMP_temperature;BMP_pressure;BME280_temperature;BME280_humidity;BME280_pressure;Samples;Min_cycle;Max_cycle;Signal;HPM_P1;HPM_P2
2022/05/12 00:02:08;;;;;;;8.40;6.50;;;;;;;;;;5030336;28;20441;-54
2022/05/12 00:04:35;;;;;;;8.07;7.27;;;;;;;;;;5030160;28;20440;-53
2022/05/12 00:07:01;;;;;;;10.27;6.63;;;;;;;;;;5030408;28;20448;-57
2022/05/12 00:09:27;;;;;;;7.97;7.07;;;;;;;;;;5030208;28;20507;-55
2022/05/12 00:11:53;;;;;;;10.50;7.67;;;;;;;;;;5012822;28;20528;-54
2022/05/12 00:14:23;;;;;;;9.10;7.20;;;;;;;;;;5032922;28;20492;-58
2022/05/12 00:16:50;;;;;;;10.90;6.50;;;;;;;;;;5031539;28;20435;-57
2022/05/12 00:19:16;;;;;;;7.93;7.17;;;;;;;;;;5031621;28;20487;-57
2022/05/12 00:21:43;;;;;;;7.57;6.20;;;;;;;;;;4991006;28;1136453;-54
2022/05/12 00:24:10;;;;;;;7.57;6.77;;;;;;;;;;5031379;28;20196;-56
2022/05/12 00:26:37;;;;;;;9.33;6.93;;;;;;;;;;5013247;28;20952;-55
2022/05/12 00:29:05;;;;;;;7.63;6.60;;;;;;;;;;5013208;28;20412;-57
2022/05/12 00:31:32;;;;;;;6.90;5.90;;;;;;;;;;5030920;28;20476;-56
2022/05/12 00:33:58;;;;;;;6.13;5.50;;;;;;;;;;5030754;28;20439;-53
2022/05/12 00:36:24;;;;;;;6.10;5.50;;;;;;;;;;5030706;28;20421;-56
2022/05/12 00:38:51;;;;;;;9.10;5.70;;;;;;;;;;5030778;28;20412;-58
2022/05/12 00:41:17;;;;;;;6.30;5.60;;;;;;;;;;5013081;28;20435;-55
2022/05/12 00:43:51;;;;;;;7.50;5.50;;;;;;;;;;5030783;28;20919;-58
2022/05/12 00:46:18;;;;;;;9.60;5.70;;;;;;;;;;5030671;28;20432;-56
2022/05/12 00:48:45;;;;;;;7.57;5.87;;;;;;;;;;5030610;28;20497;-54
2022/05/12 00:51:12;;;;;;;5.83;5.33;;;;;;;;;;5029865;28;20513;-54
2022/05/12 00:53:38;;;;;;;5.83;5.23;;;;;;;;;;5030881;28;20754;-67
2022/05/12 00:56:05;;;;;;;10.00;5.83;;;;;;;;;;5030841;28;20412;-70
2022/05/12 00:58:32;;;;;;;10.53;5.03;;;;;;;;;;5013049;28;20511;-65
2022/05/12 01:00:58;;;;;;;6.37;5.40;;;;;;;;;;5030752;28;20470;-71
2022/05/12 01:03:25;;;;;;;11.50;5.27;;;;;;;;;;5030423;28;20532;-66
2022/05/12 01:05:52;;;;;;;5.37;5.07;;;;;;;;;;5030587;28;20421;-69
2022/05/12 01:08:19;;;;;;;9.43;5.30;;;;;;;;;;5030443;28;20405;-71
2022/05/12 01:10:47;;;;;;;6.13;5.63;;;;;;;;;;5012392;28;20475;-64
2022/05/12 01:13:13;;;;;;;5.67;5.13;;;;;;;;;;5030892;28;20415;-64
2022/05/12 01:15:48;;;;;;;23.07;6.07;;;;;;;;;;5030410;28;20413;-72
2022/05/12 01:18:17;;;;;;;7.27;5.83;;;;;;;;;;5030693;28;20410;-67
2022/05/12 01:20:43;;;;;;;5.90;5.40;;;;;;;;;;5030428;28;20409;-73
2022/05/12 01:23:15;;;;;;;10.50;5.80;;;;;;;;;;5012878;28;20412;-74
2022/05/12 01:25:41;;;;;;;6.80;5.20;;;;;;;;;;5030473;28;20500;-68
2022/05/12 01:28:07;;;;;;;6.20;5.40;;;;;;;;;;5030314;28;20440;-71
2022/05/12 01:30:33;;;;;;;6.57;5.33;;;;;;;;;;5012588;28;20217;-68
2022/05/12 01:33:00;;;;;;;7.70;5.20;;;;;;;;;;5030350;28;20415;-60
2022/05/12 01:35:26;;;;;;;8.90;5.40;;;;;;;;;;5030330;28;20401;-59
2022/05/12 01:37:52;;;;;;;7.63;4.80;;;;;;;;;;5030300;28;20935;-57
2022/05/12 01:40:20;;;;;;;9.23;5.33;;;;;;;;;;5030230;28;20404;-55
2022/05/12 01:42:46;;;;;;;5.20;4.80;;;;;;;;;;5030111;28;20409;-55
2022/05/12 01:45:12;;;;;;;13.67;5.43;;;;;;;;;;5030123;28;20409;-60
2022/05/12 01:47:38;;;;;;;9.10;5.80;;;;;;;;;;5029843;28;20417;-56
2022/05/12 01:50:05;;;;;;;5.70;5.10;;;;;;;;;;5029729;28;20504;-61
2022/05/12 01:52:31;;;;;;;5.40;4.57;;;;;;;;;;5029899;28;20912;-55
2022/05/12 01:54:57;;;;;;;6.83;4.40;;;;;;;;;;5012173;28;20875;-54
2022/05/12 01:57:28;;;;;;;6.27;4.30;;;;;;;;;;5029865;28;20409;-55
2022/05/12 01:59:54;;;;;;;8.00;4.23;;;;;;;;;;5029756;28;20911;-54
2022/05/12 02:02:20;;;;;;;5.50;4.90;;;;;;;;;;5029483;28;20488;-57
2022/05/12 02:04:48;;;;;;;6.73;4.43;;;;;;;;;;5029641;28;20503;-58
2022/05/12 02:07:14;;;;;;;5.10;4.70;;;;;;;;;;5029651;28;20695;-58
2022/05/12 02:09:40;;;;;;;4.97;4.67;;;;;;;;;;5029726;28;20468;-59
2022/05/12 02:12:06;;;;;;;5.17;4.67;;;;;;;;;;5029669;28;20901;-57
2022/05/12 02:14:32;;;;;;;5.50;4.30;;;;;;;;;;5029404;28;20177;-56
2022/05/12 02:16:58;;;;;;;5.40;5.00;;;;;;;;;;5029499;28;20461;-53
2022/05/12 02:19:26;;;;;;;4.50;4.10;;;;;;;;;;5029630;28;20462;-54
2022/05/12 02:21:54;;;;;;;4.63;4.27;;;;;;;;;;5029300;28;20552;-52
2022/05/12 02:24:20;;;;;;;8.73;4.10;;;;;;;;;;5029555;28;20932;-55
2022/05/12 02:26:49;;;;;;;4.10;3.87;;;;;;;;;;5029404;28;20405;-55
2022/05/12 02:29:15;;;;;;;4.30;4.10;;;;;;;;;;5029371;28;20527;-56
2022/05/12 02:31:41;;;;;;;4.37;3.43;;;;;;;;;;5029440;28;20455;-53
2022/05/12 02:34:07;;;;;;;4.87;4.50;;;;;;;;;;5029342;28;20750;-53
2022/05/12 02:36:33;;;;;;;4.27;3.97;;;;;;;;;;5029196;28;20420;-58
2022/05/12 02:38:59;;;;;;;4.93;4.40;;;;;;;;;;5029282;28;20558;-56
2022/05/12 02:41:25;;;;;;;4.37;3.97;;;;;;;;;;5029291;28;20875;-54
2022/05/12 02:43:51;;;;;;;6.83;4.20;;;;;;;;;;5029188;28;20448;-55
2022/05/12 02:46:17;;;;;;;6.60;4.40;;;;;;;;;;5029093;28;20424;-56
2022/05/12 02:48:44;;;;;;;5.73;3.60;;;;;;;;;;5029438;28;20404;-59
2022/05/12 02:51:11;;;;;;;7.77;5.10;;;;;;;;;;5029156;28;20468;-52
2022/05/12 02:53:37;;;;;;;5.27;4.77;;;;;;;;;;5029219;28;20412;-54
2022/05/12 02:56:04;;;;;;;10.50;5.37;;;;;;;;;;5029058;28;20440;-55
2022/05/12 02:58:31;;;;;;;5.50;5.00;;;;;;;;;;5029102;28;20493;-57
2022/05/12 03:00:57;;;;;;;10.00;5.97;;;;;;;;;;5029115;28;20416;-54
2022/05/12 03:03:24;;;;;;;6.37;5.83;;;;;;;;;;5028841;28;20409;-52
2022/05/12 03:05:51;;;;;;;12.53;6.77;;;;;;;;;;5028943;28;20683;-53
2022/05/12 03:08:17;;;;;;;10.67;7.00;;;;;;;;;;5028929;28;20477;-57
2022/05/12 03:10:49;;;;;;;36.97;6.23;;;;;;;;;;5028915;28;20510;-59
2022/05/12 03:13:15;;;;;;;12.43;7.00;;;;;;;;;;5011723;28;20795;-54
2022/05/12 03:15:41;;;;;;;12.97;6.30;;;;;;;;;;5032496;28;20948;-55
2022/05/12 03:18:07;;;;;;;9.50;7.23;;;;;;;;;;5032186;28;20495;-55
2022/05/12 03:20:33;;;;;;;10.80;7.40;;;;;;;;;;5032023;28;20412;-56
2022/05/12 03:23:02;;;;;;;13.83;7.53;;;;;;;;;;5032014;28;20476;-61
2022/05/12 03:25:28;;;;;;;12.83;7.90;;;;;;;;;;5032057;28;20416;-57
2022/05/12 03:27:54;;;;;;;9.40;6.80;;;;;;;;;;5032045;28;20405;-56
2022/05/12 03:30:25;;;;;;;9.80;8.10;;;;;;;;;;5031942;28;20471;-53
2022/05/12 03:32:54;;;;;;;10.30;6.63;;;;;;;;;;5031912;28;20767;-55
2022/05/12 03:35:20;;;;;;;8.73;6.50;;;;;;;;;;5031824;28;20420;-57
2022/05/12 03:37:46;;;;;;;11.43;6.90;;;;;;;;;;5031848;28;20503;-55
2022/05/12 03:40:14;;;;;;;12.27;7.17;;;;;;;;;;5014113;28;20515;-57
2022/05/12 03:42:41;;;;;;;9.87;6.93;;;;;;;;;;5031952;28;20404;-54
2022/05/12 03:45:08;;;;;;;16.30;7.30;;;;;;;;;;5031712;28;20405;-55
2022/05/12 03:47:35;;;;;;;11.10;6.70;;;;;;;;;;5031732;28;20926;-61
2022/05/12 03:50:04;;;;;;;14.10;6.70;;;;;;;;;;5031461;28;20948;-55
2022/05/12 03:52:30;;;;;;;13.13;6.80;;;;;;;;;;5013892;28;20416;-60
2022/05/12 03:54:56;;;;;;;12.97;7.17;;;;;;;;;;5013993;28;20424;-55
2022/05/12 03:57:26;;;;;;;19.27;6.97;;;;;;;;;;5031436;28;20405;-52
2022/05/12 03:59:52;;;;;;;11.93;5.83;;;;;;;;;;5031581;28;20412;-59
2022/05/12 04:02:19;;;;;;;18.73;6.17;;;;;;;;;;5031468;28;20412;-58
2022/05/12 04:04:46;;;;;;;15.93;6.03;;;;;;;;;;5013782;28;20435;-60
2022/05/12 04:07:13;;;;;;;7.00;5.77;;;;;;;;;;5031726;28;20409;-57
2022/05/12 04:09:39;;;;;;;7.97;6.03;;;;;;;;;;5031498;28;20456;-56
2022/05/12 04:12:06;;;;;;;7.83;6.07;;;;;;;;;;5013807;28;20788;-56
2022/05/12 04:14:32;;;;;;;6.67;5.60;;;;;;;;;;5031426;28;20412;-55
2022/05/12 04:17:01;;;;;;;10.37;6.10;;;;;;;;;;5031450;28;20419;-53
2022/05/12 04:19:28;;;;;;;9.80;5.90;;;;;;;;;;5031248;28;20447;-61
2022/05/12 04:21:54;;;;;;;11.90;5.40;;;;;;;;;;5031110;28;20464;-57
2022/05/12 04:24:20;;;;;;;11.50;5.83;;;;;;;;;;5031036;28;20412;-54
2022/05/12 04:26:46;;;;;;;6.77;5.60;;;;;;;;;;5009274;28;20781;-52
2022/05/12 04:29:13;;;;;;;5.97;5.30;;;;;;;;;;5031267;28;20188;-53
2022/05/12 04:31:39;;;;;;;6.83;5.87;;;;;;;;;;5031084;28;20468;-61
2022/05/12 04:36:51;;;;;;;15.10;5.50;;;;;;;;;;5029114;28;20755;-60
2022/05/12 04:39:17;;;;;;;12.40;6.20;;;;;;;;;;5030385;28;20411;-56
2022/05/12 04:41:43;;;;;;;6.87;6.00;;;;;;;;;;5031070;28;20429;-61
2022/05/12 04:44:10;;;;;;;12.67;4.87;;;;;;;;;;5030825;28;20430;-55
2022/05/12 04:46:37;;;;;;;7.03;4.60;;;;;;;;;;5030822;28;20872;-54
2022/05/12 04:49:03;;;;;;;8.80;4.50;;;;;;;;;;5030804;28;20561;-56
2022/05/12 04:51:30;;;;;;;8.07;4.00;;;;;;;;;;5013043;28;20517;-53
2022/05/12 04:53:56;;;;;;;6.00;4.50;;;;;;;;;;5030668;28;20405;-54
2022/05/12 04:56:22;;;;;;;8.90;4.20;;;;;;;;;;5030624;28;20916;-52
2022/05/12 04:58:48;;;;;;;4.20;3.90;;;;;;;;;;5029581;28;20404;-54
2022/05/12 05:01:14;;;;;;;4.57;4.13;;;;;;;;;;5029500;28;20413;-52
2022/05/12 05:03:40;;;;;;;8.43;3.30;;;;;;;;;;5030455;28;20715;-55
2022/05/12 05:06:06;;;;;;;12.10;3.63;;;;;;;;;;5029365;28;20416;-56
2022/05/12 05:08:32;;;;;;;7.27;3.13;;;;;;;;;;5029585;28;20907;-56
2022/05/12 05:10:58;;;;;;;6.37;3.37;;;;;;;;;;5030166;28;20468;-57
2022/05/12 05:13:24;;;;;;;4.63;2.80;;;;;;;;;;5030476;28;20881;-58
2022/05/12 05:15:51;;;;;;;7.97;3.20;;;;;;;;;;5012637;28;20431;-55
2022/05/12 05:18:19;;;;;;;3.50;3.20;;;;;;;;;;5030412;28;20401;-57
2022/05/12 05:20:46;;;;;;;8.77;3.30;;;;;;;;;;5030196;28;20461;-57
2022/05/12 05:23:15;;;;;;;6.17;2.53;;;;;;;;;;5012785;28;20432;-62
2022/05/12 05:25:41;;;;;;;9.33;3.20;;;;;;;;;;5030296;28;20432;-59
2022/05/12 05:28:09;;;;;;;4.40;3.23;;;;;;;;;;5030263;28;20470;-64
2022/05/12 05:30:38;;;;;;;3.53;3.23;;;;;;;;;;5012462;28;20830;-57
2022/05/12 05:33:04;;;;;;;6.30;3.17;;;;;;;;;;5030148;28;20417;-58
2022/05/12 05:35:30;;;;;;;3.83;3.00;;;;;;;;;;5012367;28;20726;-61
2022/05/12 05:37:56;;;;;;;19.27;4.00;;;;;;;;;;5029549;28;20411;-57
2022/05/12 05:40:26;;;;;;;3.77;3.47;;;;;;;;;;5030082;28;20922;-56
2022/05/12 05:42:53;;;;;;;5.80;3.10;;;;;;;;;;5029986;28;20413;-59
2022/05/12 05:45:20;;;;;;;7.40;3.50;;;;;;;;;;5029921;28;20814;-64
2022/05/12 05:47:47;;;;;;;7.30;3.80;;;;;;;;;;5029933;28;20408;-58
2022/05/12 05:50:14;;;;;;;3.33;2.63;;;;;;;;;;5029931;28;20464;-58
2022/05/12 05:55:32;;;;;;;3.47;3.27;;;;;;;;;;5030113;28;20507;-58
2022/05/12 05:58:02;;;;;;;3.60;3.30;;;;;;;;;;5012006;28;20980;-71
2022/05/12 06:00:29;;;;;;;3.00;2.90;;;;;;;;;;5012345;28;20793;-57
2022/05/12 06:02:58;;;;;;;4.40;2.87;;;;;;;;;;5029593;28;20408;-64
2022/05/12 06:05:24;;;;;;;2.80;2.70;;;;;;;;;;5029614;28;20746;-52
2022/05/12 06:07:50;;;;;;;3.67;3.33;;;;;;;;;;5011777;28;20417;-60
2022/05/12 06:10:17;;;;;;;4.30;3.00;;;;;;;;;;5029461;28;20460;-54
2022/05/12 06:12:43;;;;;;;3.47;3.10;;;;;;;;;;5029740;28;20408;-60
2022/05/12 06:15:10;;;;;;;3.33;3.03;;;;;;;;;;5029901;28;20393;-58
2022/05/12 06:17:36;;;;;;;3.13;2.93;;;;;;;;;;5029416;28;20416;-53
2022/05/12 06:20:04;;;;;;;5.13;2.93;;;;;;;;;;5029489;28;20931;-59
2022/05/12 06:22:30;;;;;;;6.23;3.33;;;;;;;;;;5029338;28;20449;-55
2022/05/12 06:24:56;;;;;;;11.47;3.27;;;;;;;;;;5029585;28;20452;-59
2022/05/12 06:27:25;;;;;;;4.13;3.60;;;;;;;;;;5029126;28;20900;-53
2022/05/12 06:29:51;;;;;;;12.83;3.57;;;;;;;;;;5011591;28;20456;-54
2022/05/12 06:32:17;;;;;;;2.90;2.70;;;;;;;;;;5029306;28;20404;-57
2022/05/12 06:34:45;;;;;;;5.63;3.57;;;;;;;;;;5011704;28;20773;-59
2022/05/12 06:37:12;;;;;;;7.00;3.10;;;;;;;;;;5029504;28;20922;-55
2022/05/12 06:39:38;;;;;;;6.27;3.30;;;;;;;;;;5029311;28;20440;-54
2022/05/12 06:42:05;;;;;;;3.30;3.00;;;;;;;;;;5011454;28;20490;-53
2022/05/12 06:44:31;;;;;;;3.20;2.80;;;;;;;;;;5029107;28;20417;-55
2022/05/12 06:46:57;;;;;;;3.73;3.43;;;;;;;;;;5028975;28;20507;-57
2022/05/12 06:49:26;;;;;;;18.17;3.60;;;;;;;;;;5031010;28;20447;-58
2022/05/12 06:51:52;;;;;;;13.50;3.83;;;;;;;;;;5032366;28;20439;-56
2022/05/12 06:54:18;;;;;;;4.00;3.70;;;;;;;;;;5032646;28;21034;-56
2022/05/12 06:56:44;;;;;;;5.90;2.87;;;;;;;;;;5014640;28;20790;-54
2022/05/12 06:59:10;;;;;;;3.80;3.47;;;;;;;;;;5032467;28;20417;-51
2022/05/12 07:01:39;;;;;;;4.30;2.90;;;;;;;;;;5014826;28;20424;-59
2022/05/12 07:04:05;;;;;;;7.27;3.30;;;;;;;;;;5032369;28;20415;-59
2022/05/12 07:06:32;;;;;;;6.00;2.80;;;;;;;;;;5032382;28;20424;-66
2022/05/12 07:08:58;;;;;;;2.97;2.70;;;;;;;;;;5032140;28;20405;-54
2022/05/12 07:11:24;;;;;;;3.23;2.40;;;;;;;;;;5032115;28;20479;-56
2022/05/12 07:13:53;;;;;;;3.77;3.10;;;;;;;;;;5032364;28;20401;-55
2022/05/12 07:16:20;;;;;;;4.73;2.97;;;;;;;;;;5032120;28;20912;-59
2022/05/12 07:18:46;;;;;;;2.50;2.40;;;;;;;;;;5032171;28;20400;-56
2022/05/12 07:26:42;;;;;;;3.60;3.30;;;;;;;;;;5032660;28;20411;-59
2022/05/12 07:29:13;;;;;;;2.53;2.33;;;;;;;;;;5014531;28;20843;-68
2022/05/12 07:31:42;;;;;;;9.47;2.77;;;;;;;;;;5032278;28;20551;-68
2022/05/12 07:34:09;;;;;;;3.20;2.90;;;;;;;;;;5032013;28;20806;-68
2022/05/12 07:36:40;;;;;;;2.97;2.87;;;;;;;;;;5031872;28;20921;-69
2022/05/12 07:39:06;;;;;;;7.40;2.90;;;;;;;;;;5032060;28;20481;-72
2022/05/12 07:41:38;;;;;;;4.63;2.20;;;;;;;;;;5031890;28;20765;-62
2022/05/12 07:44:04;;;;;;;8.93;2.47;;;;;;;;;;5031995;28;20409;-60
2022/05/12 07:46:31;;;;;;;2.77;2.57;;;;;;;;;;5031818;28;20492;-62
2022/05/12 07:48:57;;;;;;;9.60;2.93;;;;;;;;;;5014369;28;20417;-53
2022/05/12 07:51:24;;;;;;;2.90;2.70;;;;;;;;;;5031802;28;20472;-57
2022/05/12 07:53:51;;;;;;;2.77;2.57;;;;;;;;;;5031807;28;20409;-53
2022/05/12 07:56:19;;;;;;;2.77;2.60;;;;;;;;;;5031814;28;20401;-54
2022/05/12 07:58:46;;;;;;;3.10;2.80;;;;;;;;;;5031881;28;20758;-61
2022/05/12 08:01:12;;;;;;;4.53;2.33;;;;;;;;;;5013808;28;20423;-55
2022/05/12 08:03:39;;;;;;;2.70;2.50;;;;;;;;;;5031762;28;20427;-63
2022/05/12 08:06:08;;;;;;;2.80;2.70;;;;;;;;;;5031776;28;20435;-53
2022/05/12 08:08:35;;;;;;;7.80;2.33;;;;;;;;;;5013963;28;20412;-65
2022/05/12 08:11:02;;;;;;;2.50;2.40;;;;;;;;;;5031550;28;20463;-58
2022/05/12 08:13:29;;;;;;;6.00;3.00;;;;;;;;;;5031186;28;20499;-62
2022/05/12 08:15:55;;;;;;;4.07;2.27;;;;;;;;;;5031283;28;20409;-57
2022/05/12 08:18:23;;;;;;;2.93;2.60;;;;;;;;;;5013551;28;20417;-69
2022/05/12 08:20:49;;;;;;;3.90;2.60;;;;;;;;;;5031235;28;20459;-53
2022/05/12 08:23:16;;;;;;;4.70;2.80;;;;;;;;;;5031325;28;20943;-59
2022/05/12 08:25:42;;;;;;;7.57;3.10;;;;;;;;;;5031389;28;20396;-56
2022/05/12 08:28:08;;;;;;;5.20;2.77;;;;;;;;;;5031110;28;20409;-54
2022/05/12 08:30:34;;;;;;;6.80;2.23;;;;;;;;;;5013440;28;20813;-50
2022/05/12 08:33:01;;;;;;;2.53;2.33;;;;;;;;;;5031187;28;20489;-54
2022/05/12 08:35:27;;;;;;;3.13;2.63;;;;;;;;;;5031030;28;20412;-57
2022/05/12 08:37:54;;;;;;;2.83;2.67;;;;;;;;;;5031071;28;20413;-60
2022/05/12 08:40:33;;;;;;;2.90;2.70;;;;;;;;;;5030930;28;20465;-54
2022/05/12 08:43:02;;;;;;;3.20;2.30;;;;;;;;;;5031092;28;21395;-54
2022/05/12 08:45:28;;;;;;;3.20;2.23;;;;;;;;;;5030856;28;20412;-55
2022/05/12 08:47:56;;;;;;;2.63;2.40;;;;;;;;;;5030960;28;20405;-56
2022/05/12 08:50:27;;;;;;;2.23;2.03;;;;;;;;;;5012908;28;20464;-60
2022/05/12 08:52:55;;;;;;;2.33;2.23;;;;;;;;;;5030770;28;20416;-57
2022/05/12 08:55:27;;;;;;;2.63;2.30;;;;;;;;;;5030670;28;20422;-54
2022/05/12 08:57:55;;;;;;;2.30;2.20;;;;;;;;;;5030834;28;20475;-55
2022/05/12 09:00:25;;;;;;;3.00;2.03;;;;;;;;;;5012886;28;20924;-54
2022/05/12 09:03:03;;;;;;;6.20;2.90;;;;;;;;;;5030636;28;20415;-54
2022/05/12 09:08:24;;;;;;;3.93;2.20;;;;;;;;;;5061966;27;1979187;-55
2022/05/12 09:13:34;;;;;;;6.30;2.50;;;;;;;;;;5107397;27;1341937;-55
2022/05/12 09:16:10;;;;;;;3.10;2.80;;;;;;;;;;5130829;28;20243;-54
2022/05/12 09:18:40;;;;;;;6.60;3.03;;;;;;;;;;5130882;28;20408;-55
2022/05/12 09:21:08;;;;;;;2.50;2.40;;;;;;;;;;5130603;28;20424;-56
2022/05/12 09:23:35;;;;;;;2.50;2.40;;;;;;;;;;5130636;28;20408;-55
2022/05/12 09:26:40;;;;;;;4.40;2.40;;;;;;;;;;5028452;27;1280638;-55
2022/05/12 09:29:21;;;;;;;2.17;2.10;;;;;;;;;;5049631;28;20173;-54
2022/05/12 09:35:12;;;;;;;3.93;2.40;;;;;;;;;;5151498;27;20269;-56
2022/05/12 09:37:41;;;;;;;3.27;2.30;;;;;;;;;;5151359;27;20445;-61
2022/05/12 09:40:22;;;;;;;2.50;2.30;;;;;;;;;;5151348;27;20411;-54
2022/05/12 09:48:20;;;;;;;2.03;1.77;;;;;;;;;;5069670;28;20918;-55
2022/05/12 09:50:47;;;;;;;2.80;2.40;;;;;;;;;;5068532;28;20426;-53
2022/05/12 09:53:23;;;;;;;2.90;2.63;;;;;;;;;;5070107;28;20411;-56
2022/05/12 09:56:10;;;;;;;12.43;2.70;;;;;;;;;;5069609;28;20410;-53
2022/05/12 09:58:41;;;;;;;5.30;2.40;;;;;;;;;;5069561;28;20406;-58
2022/05/12 10:01:36;;;;;;;2.20;2.10;;;;;;;;;;5069637;28;20509;-56
2022/05/12 10:08:05;;;;;;;2.30;2.20;;;;;;;;;;5069659;28;20493;-52
2022/05/12 10:10:22;;;;;;;4.63;2.40;;;;;;;;;;5068696;28;20771;-55
2022/05/12 10:12:59;;;;;;;2.40;2.20;;;;;;;;;;5069258;28;20779;-54
2022/05/12 10:15:51;;;;;;;2.30;1.77;;;;;;;;;;5068045;28;20450;-54
2022/05/12 10:18:38;;;;;;;4.83;2.50;;;;;;;;;;5068086;28;20426;-55
2022/05/12 10:21:24;;;;;;;2.80;2.17;;;;;;;;;;5065551;28;20444;-77
2022/05/12 10:24:02;;;;;;;3.87;2.03;;;;;;;;;;5069008;28;20406;-56
2022/05/12 10:26:36;;;;;;;3.80;2.00;;;;;;;;;;5069062;28;20962;-73
2022/05/12 10:29:09;;;;;;;2.30;2.20;;;;;;;;;;5068745;28;20415;-72
2022/05/12 10:31:35;;;;;;;2.67;2.17;;;;;;;;;;5067621;28;20985;-74
